createdAt,value
2022-10-08T00:00:21.282Z,101747.28
2022-10-08T00:05:20.082Z,101742.16
2022-10-08T00:10:18.933Z,101737.81
2022-10-08T00:15:19.030Z,101732.66
2022-10-08T00:20:17.889Z,101739.31
2022-10-08T00:25:16.732Z,101741.94
2022-10-08T00:30:15.454Z,101740.09
2022-10-08T00:35:15.888Z,101733.19
2022-10-08T00:40:15.151Z,101725.31
2022-10-08T00:45:14.775Z,101725.41
2022-10-08T00:50:20.218Z,101730.03
2022-10-08T00:55:21.297Z,101723.22
2022-10-08T01:00:23.171Z,101711.34
2022-10-08T01:05:31.660Z,101708.19
2022-10-08T01:10:39.221Z,101699.47
2022-10-08T01:15:43.298Z,101703.66
2022-10-08T01:20:58.595Z,101692.09
2022-10-08T01:26:03.749Z,101698.25
2022-10-08T01:31:08.400Z,101689.59
2022-10-08T01:36:08.778Z,101687.13
2022-10-08T01:41:10.703Z,101684.59
2022-10-08T01:46:17.560Z,101690.91
2022-10-08T01:51:22.935Z,101696.31
2022-10-08T01:56:25.866Z,101694.75
2022-10-08T02:01:33.843Z,101691.44
2022-10-08T02:06:37.507Z,101688.03
2022-10-08T02:11:36.352Z,101697.88
2022-10-08T02:16:43.369Z,101698.81
2022-10-08T02:21:44.063Z,101699.84
2022-10-08T02:26:48.941Z,101704.66
2022-10-08T02:31:53.424Z,101701.16
2022-10-08T02:36:57.353Z,101707.22
2022-10-08T02:42:00.900Z,101700.00
2022-10-08T02:47:05.556Z,101697.34
2022-10-08T02:52:06.329Z,101696.44
2022-10-08T02:57:14.554Z,101693.78
2022-10-08T03:02:21.370Z,101694.81
2022-10-08T03:07:23.082Z,101702.19
2022-10-08T03:12:22.337Z,101697.72
2022-10-08T03:17:30.600Z,101700.41
2022-10-08T03:22:29.678Z,101701.84
2022-10-08T03:27:28.436Z,101691.81
2022-10-08T03:32:28.962Z,101700.34
2022-10-08T03:37:27.696Z,101703.56
2022-10-08T03:42:26.470Z,101694.41
2022-10-08T03:47:25.248Z,101694.84
2022-10-08T03:52:25.326Z,101688.50
2022-10-08T03:57:24.337Z,101694.75
2022-10-08T04:02:23.180Z,101691.03
2022-10-08T04:07:21.946Z,101682.72
2022-10-08T04:12:22.236Z,101676.81
2022-10-08T04:17:22.302Z,101673.88
2022-10-08T04:22:21.598Z,101672.31
2022-10-08T04:27:26.714Z,101671.28
2022-10-08T04:32:26.339Z,101676.59
2022-10-08T04:37:25.215Z,101674.72
2022-10-08T04:42:26.443Z,101678.16
2022-10-08T04:47:25.149Z,101672.63
2022-10-08T04:52:23.840Z,101676.22
2022-10-08T04:57:22.573Z,101675.28
2022-10-08T05:02:25.040Z,101678.22
2022-10-08T05:07:26.169Z,101692.34
2022-10-08T05:12:25.835Z,101692.16
2022-10-08T05:17:27.908Z,101687.16
2022-10-08T05:22:27.474Z,101695.34
2022-10-08T05:27:26.216Z,101698.19
2022-10-08T05:32:27.518Z,101701.50
2022-10-08T05:37:27.699Z,101702.19
2022-10-08T05:42:26.385Z,101704.63
2022-10-08T05:47:25.415Z,101701.59
2022-10-08T05:52:27.734Z,101692.31
2022-10-08T05:57:26.456Z,101695.59
2022-10-08T06:02:27.544Z,101709.56
2022-10-08T06:07:30.269Z,101706.34
2022-10-08T06:12:30.448Z,101705.16
2022-10-08T06:17:31.066Z,101707.34
2022-10-08T06:22:31.926Z,101701.47
2022-10-08T06:27:33.534Z,101718.69
2022-10-08T06:32:36.463Z,101714.63
2022-10-08T06:37:37.005Z,101710.34
2022-10-08T06:42:36.327Z,101713.91
2022-10-08T06:47:37.751Z,101716.69
2022-10-08T06:52:51.232Z,101711.91
2022-10-08T06:57:57.881Z,101717.00
2022-10-08T07:03:00.032Z,101717.34
2022-10-08T07:08:00.108Z,101717.59
2022-10-08T07:12:59.545Z,101717.78
2022-10-08T07:17:58.536Z,101712.34
2022-10-08T07:22:59.924Z,101709.63
2022-10-08T07:27:58.874Z,101704.97
2022-10-08T07:33:00.346Z,101708.97
2022-10-08T07:38:00.582Z,101705.03
2022-10-08T07:42:59.321Z,101701.88
2022-10-08T07:47:59.408Z,101686.81
2022-10-08T07:52:58.128Z,101680.94
2022-10-08T07:57:58.309Z,101679.13
2022-10-08T08:02:57.661Z,101690.59
2022-10-08T08:07:56.647Z,101681.25
2022-10-08T08:12:55.353Z,101682.03
2022-10-08T08:17:56.098Z,101673.03
2022-10-08T08:22:54.820Z,101665.88
2022-10-08T08:27:53.535Z,101669.78
2022-10-08T08:32:52.458Z,101661.19
2022-10-08T08:37:52.734Z,101653.06
2022-10-08T08:42:56.936Z,101652.81
2022-10-08T08:48:05.703Z,101660.41
2022-10-08T08:53:07.354Z,101644.91
2022-10-08T08:58:18.944Z,101636.22
2022-10-08T09:03:23.124Z,101629.25
2022-10-08T09:08:29.553Z,101621.81
2022-10-08T09:13:32.452Z,101608.78
2022-10-08T09:18:31.379Z,101595.91
2022-10-08T09:23:31.401Z,101588.59
2022-10-08T09:28:45.847Z,101584.69
2022-10-08T09:33:47.992Z,101584.38
2022-10-08T09:38:48.144Z,101570.22
2022-10-08T09:44:08.619Z,101574.13
2022-10-08T09:49:26.843Z,101556.25
2022-10-08T09:54:29.415Z,101554.75
2022-10-08T09:59:30.501Z,101552.06
2022-10-08T10:04:36.401Z,101548.78
2022-10-08T10:09:43.687Z,101532.22
2022-10-08T10:14:46.341Z,101517.72
2022-10-08T10:19:52.976Z,101501.09
2022-10-08T10:25:07.450Z,101491.59
2022-10-08T10:30:19.708Z,101491.72
2022-10-08T10:35:25.351Z,101491.19
2022-10-08T10:40:31.923Z,101474.09
2022-10-08T10:45:35.156Z,101467.47
2022-10-08T10:50:42.082Z,101467.78
2022-10-08T10:55:55.058Z,101456.09
2022-10-08T11:01:01.614Z,101434.63
2022-10-08T11:06:19.458Z,101435.00
2022-10-08T11:11:30.799Z,101409.19
2022-10-08T11:16:44.834Z,101407.50
2022-10-08T11:21:52.051Z,101397.09
2022-10-08T11:26:57.940Z,101381.91
2022-10-08T11:31:57.082Z,101378.28
2022-10-08T11:37:06.836Z,101370.81
2022-10-08T11:42:16.326Z,101365.75
2022-10-08T11:47:37.498Z,101365.31
2022-10-08T11:52:37.282Z,101362.22
2022-10-08T11:58:06.594Z,101351.38
2022-10-08T12:02:57.548Z,101340.84
2022-10-08T12:07:57.802Z,101337.19
2022-10-08T12:13:04.914Z,101319.72
2022-10-08T12:18:29.834Z,101319.50
2022-10-08T12:23:40.473Z,101314.09
2022-10-08T12:28:50.915Z,101307.72
2022-10-08T12:33:57.869Z,101295.56
2022-10-08T12:39:03.229Z,101296.84
2022-10-08T12:44:08.736Z,101300.78
2022-10-08T12:49:20.242Z,101294.34
2022-10-08T12:54:21.327Z,101296.84
2022-10-08T12:59:24.796Z,101288.84
2022-10-08T13:04:25.896Z,101286.97
2022-10-08T13:09:30.103Z,101275.28
2022-10-08T13:14:33.052Z,101277.50
2022-10-08T13:19:33.842Z,101272.72
2022-10-08T13:24:39.843Z,101262.09
2022-10-08T13:29:39.895Z,101264.63
2022-10-08T13:34:43.676Z,101268.25
2022-10-08T13:39:44.299Z,101269.69
2022-10-08T13:44:44.876Z,101258.97
2022-10-08T13:49:44.037Z,101254.50
2022-10-08T13:54:43.252Z,101250.41
2022-10-08T13:59:41.757Z,101247.38
2022-10-08T14:04:41.840Z,101236.22
2022-10-08T14:09:40.559Z,101237.69
2022-10-08T14:14:39.214Z,101229.59
2022-10-08T14:19:37.835Z,101230.25
2022-10-08T14:24:39.310Z,101226.59
2022-10-08T14:29:38.110Z,101228.97
2022-10-08T14:34:37.192Z,101226.75
2022-10-08T14:39:35.914Z,101231.06
2022-10-08T14:44:35.967Z,101217.41
2022-10-08T14:49:34.669Z,101222.44
2022-10-08T14:54:33.376Z,101224.00
2022-10-08T14:59:35.158Z,101222.44
2022-10-08T15:04:37.603Z,101220.72
2022-10-08T15:09:37.339Z,101231.53
2022-10-08T15:14:38.308Z,101227.31
2022-10-08T15:19:38.506Z,101224.88
2022-10-08T15:24:37.162Z,101237.38
2022-10-08T15:29:36.754Z,101236.88
2022-10-08T15:34:35.384Z,101231.78
2022-10-08T15:39:36.179Z,101244.47
2022-10-08T15:44:35.016Z,101238.19
2022-10-08T15:49:35.268Z,101245.19
2022-10-08T15:54:37.583Z,101236.41
2022-10-08T15:59:36.913Z,101252.78
2022-10-08T16:04:35.669Z,101246.28
2022-10-08T16:09:34.608Z,101244.00
2022-10-08T16:14:34.796Z,101259.19
2022-10-08T16:19:33.554Z,101251.59
2022-10-08T16:24:32.215Z,101253.28
2022-10-08T16:29:31.062Z,101253.63
2022-10-08T16:34:32.235Z,101258.47
2022-10-08T16:39:30.964Z,101270.97
2022-10-08T16:44:29.728Z,101273.91
2022-10-08T16:49:30.894Z,101275.97
2022-10-08T16:54:30.060Z,101272.69
2022-10-08T16:59:30.415Z,101274.47
2022-10-08T17:04:39.034Z,101276.47
2022-10-08T17:09:38.051Z,101282.63
2022-10-08T17:14:37.876Z,101285.75
2022-10-08T17:19:38.232Z,101291.94
2022-10-08T17:24:41.534Z,101297.03
2022-10-08T17:29:41.099Z,101302.81
2022-10-08T17:34:41.205Z,101305.19
2022-10-08T17:39:39.909Z,101302.78
2022-10-08T17:44:38.898Z,101308.97
2022-10-08T17:49:37.767Z,101308.53
2022-10-08T17:54:37.950Z,101301.19
2022-10-08T17:59:36.739Z,101306.72
2022-10-08T18:04:35.610Z,101310.22
2022-10-08T18:09:34.566Z,101300.44
2022-10-08T18:14:36.902Z,101302.13
2022-10-08T18:19:35.652Z,101302.47
2022-10-08T18:24:34.998Z,101306.47
2022-10-08T18:29:33.796Z,101312.69
2022-10-08T18:34:33.881Z,101319.06
2022-10-08T18:39:32.596Z,101317.25
2022-10-08T18:44:31.435Z,101320.47
2022-10-08T18:49:30.885Z,101324.28
2022-10-08T18:54:31.134Z,101321.41
2022-10-08T18:59:31.229Z,101323.25
2022-10-08T19:04:30.037Z,101330.16
2022-10-08T19:09:30.311Z,101322.91
2022-10-08T19:14:29.303Z,101325.25
2022-10-08T19:19:28.906Z,101329.38
2022-10-08T19:24:28.434Z,101319.41
2022-10-08T19:29:33.693Z,101330.81
2022-10-08T19:34:33.524Z,101326.44
2022-10-08T19:39:33.770Z,101327.91
2022-10-08T19:44:33.844Z,101334.56
2022-10-08T19:49:32.603Z,101337.53
2022-10-08T19:54:31.400Z,101340.78
2022-10-08T19:59:30.120Z,101337.34
2022-10-08T20:04:30.337Z,101345.81
2022-10-08T20:09:30.731Z,101339.25
2022-10-08T20:14:29.446Z,101339.75
2022-10-08T20:19:28.317Z,101336.56
2022-10-08T20:24:28.480Z,101335.53
2022-10-08T20:29:30.814Z,101348.00
2022-10-08T20:34:31.352Z,101347.16
2022-10-08T20:39:31.878Z,101349.34
2022-10-08T20:44:30.730Z,101350.75
2022-10-08T20:49:36.024Z,101353.63
2022-10-08T20:54:36.080Z,101346.91
2022-10-08T20:59:35.119Z,101341.41
2022-10-08T21:04:33.878Z,101336.53
2022-10-08T21:09:32.698Z,101348.38
2022-10-08T21:14:32.868Z,101344.22
2022-10-08T21:19:31.622Z,101337.13
2022-10-08T21:24:30.608Z,101328.97
2022-10-08T21:29:29.294Z,101322.38
2022-10-08T21:34:29.422Z,101322.19
2022-10-08T21:39:28.124Z,101320.94
2022-10-08T21:44:26.898Z,101316.03
2022-10-08T21:49:25.653Z,101316.69
2022-10-08T21:54:25.725Z,101304.09
2022-10-08T21:59:24.486Z,101293.47
2022-10-08T22:04:24.914Z,101294.84
2022-10-08T22:09:26.944Z,101283.59
2022-10-08T22:14:26.212Z,101279.56
2022-10-08T22:19:25.318Z,101278.16
2022-10-08T22:24:23.989Z,101269.84
2022-10-08T22:29:24.076Z,101270.28
2022-10-08T22:34:22.824Z,101266.22
2022-10-08T22:39:21.589Z,101264.94
2022-10-08T22:44:20.513Z,101266.84
2022-10-08T22:49:20.681Z,101264.28
2022-10-08T22:54:19.527Z,101254.94
2022-10-08T22:59:18.241Z,101251.59
2022-10-08T23:04:16.988Z,101250.97
2022-10-08T23:09:17.053Z,101255.59
2022-10-08T23:14:15.926Z,101262.94
2022-10-08T23:19:14.612Z,101271.81
2022-10-08T23:24:13.287Z,101261.81
2022-10-08T23:29:13.373Z,101260.13
2022-10-08T23:34:12.032Z,101271.03
2022-10-08T23:39:14.672Z,101262.44
2022-10-08T23:44:14.856Z,101258.38
2022-10-08T23:49:13.621Z,101260.41
2022-10-08T23:54:12.321Z,101263.22
2022-10-08T23:59:11.166Z,101259.09
